KQA756 FWKI-FQNP
Flight info
| Callsign | KQA756 |
|---|---|
| Flight time | 0h 57m |
| Altitude | 33000 |
| Route | IBLOL UT933 DUGTI |
| Aircraft | B738/M-SDE1E2E3FGHIJ2J3J4J5M1RWXYZ/LB1D1 |
Departure
| Time | 2026-04-19 12:05 |
|---|---|
| Airport | Kamuzu International Airport (FWKI) |
Arrival
| Time | 2026-04-19 13:03 |
|---|---|
| Airport | Nampula Airport (FQNP) |
| Time | Latitude | Longitude | Altitude | Speed | Heading |
|---|---|---|---|---|---|
| 2026-04-19 11:58 | -13.78680 | 33.78344 | 4021 ft | 0 kts | 220° |
| 2026-04-19 12:00 | -13.78682 | 33.78344 | 4021 ft | 1 kts | 218° |
| 2026-04-19 12:01 | -13.78716 | 33.78325 | 4020 ft | 10 kts | 210° |
| 2026-04-19 12:01 | -13.78794 | 33.78277 | 4017 ft | 17 kts | 229° |
| 2026-04-19 12:01 | -13.78746 | 33.78148 | 4020 ft | 20 kts | 298° |
| 2026-04-19 12:01 | -13.78641 | 33.78023 | 4026 ft | 29 kts | 311° |
| 2026-04-19 12:02 | -13.78513 | 33.77867 | 4030 ft | 27 kts | 308° |
| 2026-04-19 12:02 | -13.78405 | 33.77742 | 4034 ft | 21 kts | 314° |
| 2026-04-19 12:02 | -13.78305 | 33.77632 | 4034 ft | 20 kts | 309° |
| 2026-04-19 12:02 | -13.78223 | 33.77514 | 4033 ft | 19 kts | 311° |
| 2026-04-19 12:03 | -13.78134 | 33.77409 | 4033 ft | 19 kts | 310° |
| 2026-04-19 12:03 | -13.78052 | 33.77305 | 4032 ft | 18 kts | 308° |
| 2026-04-19 12:03 | -13.77971 | 33.77207 | 4032 ft | 17 kts | 310° |
| 2026-04-19 12:03 | -13.77894 | 33.77111 | 4032 ft | 16 kts | 309° |
| 2026-04-19 12:04 | -13.77827 | 33.77018 | 4032 ft | 16 kts | 289° |
| 2026-04-19 12:04 | -13.77860 | 33.76905 | 4032 ft | 18 kts | 222° |
| 2026-04-19 12:04 | -13.77951 | 33.76894 | 4032 ft | 14 kts | 137° |
| 2026-04-19 12:04 | -13.78063 | 33.77029 | 4033 ft | 53 kts | 130° |
| 2026-04-19 12:05 | -13.78468 | 33.77526 | 4029 ft | 124 kts | 132° |
| 2026-04-19 12:05 | -13.79167 | 33.78373 | 4012 ft | 182 kts | 127° |
| 2026-04-19 12:05 | -13.80089 | 33.79419 | 4428 ft | 203 kts | 130° |
| 2026-04-19 12:05 | -13.80977 | 33.80378 | 5273 ft | 187 kts | 129° |
| 2026-04-19 12:06 | -13.81911 | 33.81440 | 5513 ft | 209 kts | 128° |
| 2026-04-19 12:06 | -13.82929 | 33.82590 | 5862 ft | 229 kts | 129° |
| 2026-04-19 12:06 | -13.84049 | 33.83836 | 6477 ft | 243 kts | 130° |
| 2026-04-19 12:06 | -13.85226 | 33.85140 | 7077 ft | 258 kts | 130° |
| 2026-04-19 12:07 | -13.86475 | 33.86527 | 7691 ft | 271 kts | 129° |
| 2026-04-19 12:07 | -13.87596 | 33.88127 | 8369 ft | 279 kts | 114° |
| 2026-04-19 12:07 | -13.88167 | 33.89997 | 9160 ft | 281 kts | 99° |
| 2026-04-19 12:07 | -13.88484 | 33.91981 | 10008 ft | 284 kts | 97° |
| 2026-04-19 12:08 | -13.88788 | 33.94018 | 10696 ft | 293 kts | 98° |
| 2026-04-19 12:08 | -13.89145 | 33.96136 | 11183 ft | 309 kts | 99° |
| 2026-04-19 12:08 | -13.89558 | 33.98351 | 11670 ft | 325 kts | 100° |
| 2026-04-19 12:08 | -13.90015 | 34.00693 | 12118 ft | 341 kts | 101° |
| 2026-04-19 12:09 | -13.90491 | 34.03117 | 12566 ft | 356 kts | 101° |
| 2026-04-19 12:09 | -13.90991 | 34.05666 | 13159 ft | 365 kts | 101° |
| 2026-04-19 12:09 | -13.91489 | 34.08210 | 13874 ft | 370 kts | 101° |
| 2026-04-19 12:09 | -13.91995 | 34.10811 | 14705 ft | 371 kts | 101° |
| 2026-04-19 12:10 | -13.92501 | 34.13426 | 15416 ft | 375 kts | 101° |
| 2026-04-19 12:10 | -13.93004 | 34.16037 | 16109 ft | 379 kts | 101° |
| 2026-04-19 12:10 | -13.93519 | 34.18717 | 16741 ft | 384 kts | 101° |
| 2026-04-19 12:10 | -13.94040 | 34.21429 | 17404 ft | 388 kts | 101° |
| 2026-04-19 12:11 | -13.94560 | 34.24139 | 18052 ft | 391 kts | 101° |
| 2026-04-19 12:11 | -13.95093 | 34.26916 | 18685 ft | 395 kts | 101° |
| 2026-04-19 12:11 | -13.95621 | 34.29671 | 19281 ft | 398 kts | 101° |
| 2026-04-19 12:11 | -13.96154 | 34.32455 | 19915 ft | 400 kts | 101° |
| 2026-04-19 12:12 | -13.96695 | 34.35276 | 20473 ft | 404 kts | 101° |
| 2026-04-19 12:12 | -13.97236 | 34.38100 | 21069 ft | 406 kts | 101° |
| 2026-04-19 12:12 | -13.97785 | 34.40970 | 21648 ft | 408 kts | 101° |
| 2026-04-19 12:12 | -13.98332 | 34.43829 | 22208 ft | 410 kts | 101° |
| 2026-04-19 12:13 | -13.98879 | 34.46690 | 22757 ft | 413 kts | 101° |
| 2026-04-19 12:13 | -13.99437 | 34.49615 | 23199 ft | 419 kts | 101° |
| 2026-04-19 12:13 | -14.00002 | 34.52579 | 23669 ft | 423 kts | 101° |
| 2026-04-19 12:13 | -14.00566 | 34.55537 | 24114 ft | 427 kts | 101° |
| 2026-04-19 12:14 | -14.01142 | 34.58564 | 24550 ft | 432 kts | 101° |
| 2026-04-19 12:14 | -14.01716 | 34.61576 | 25048 ft | 435 kts | 101° |
| 2026-04-19 12:14 | -14.02302 | 34.64656 | 25430 ft | 440 kts | 102° |
| 2026-04-19 12:14 | -14.02896 | 34.67778 | 25874 ft | 444 kts | 101° |
| 2026-04-19 12:15 | -14.03491 | 34.70909 | 26305 ft | 448 kts | 101° |
| 2026-04-19 12:15 | -14.04092 | 34.74070 | 26731 ft | 451 kts | 102° |
| 2026-04-19 12:15 | -14.04700 | 34.77271 | 27125 ft | 456 kts | 102° |
| 2026-04-19 12:15 | -14.05322 | 34.80510 | 27526 ft | 460 kts | 102° |
| 2026-04-19 12:16 | -14.06020 | 34.83746 | 27927 ft | 463 kts | 104° |
| 2026-04-19 12:16 | -14.06569 | 34.86092 | 28194 ft | 466 kts | 105° |
| 2026-04-19 12:16 | -14.07376 | 34.89401 | 28652 ft | 467 kts | 105° |
| 2026-04-19 12:16 | -14.08179 | 34.92627 | 29291 ft | 465 kts | 105° |
| 2026-04-19 12:17 | -14.08996 | 34.95904 | 29780 ft | 466 kts | 105° |
| 2026-04-19 12:17 | -14.09751 | 34.98949 | 30273 ft | 465 kts | 105° |
| 2026-04-19 12:17 | -14.10545 | 35.02171 | 30808 ft | 465 kts | 105° |
| 2026-04-19 12:17 | -14.11336 | 35.05402 | 31304 ft | 464 kts | 105° |
| 2026-04-19 12:18 | -14.12122 | 35.08638 | 31773 ft | 465 kts | 105° |
| 2026-04-19 12:18 | -14.12911 | 35.11900 | 32220 ft | 465 kts | 105° |
| 2026-04-19 12:18 | -14.13683 | 35.15103 | 32649 ft | 466 kts | 105° |
| 2026-04-19 12:18 | -14.14466 | 35.18359 | 32988 ft | 468 kts | 105° |
| 2026-04-19 12:19 | -14.15258 | 35.21657 | 32999 ft | 469 kts | 105° |
| 2026-04-19 12:19 | -14.16695 | 35.27661 | 33007 ft | 463 kts | 105° |
| 2026-04-19 12:20 | -14.18242 | 35.34152 | 33013 ft | 465 kts | 105° |
| 2026-04-19 12:20 | -14.19783 | 35.40615 | 33025 ft | 466 kts | 105° |
| 2026-04-19 12:21 | -14.21109 | 35.46188 | 33037 ft | 464 kts | 105° |
| 2026-04-19 12:21 | -14.22641 | 35.52642 | 33047 ft | 463 kts | 105° |
| 2026-04-19 12:22 | -14.24168 | 35.59081 | 33040 ft | 462 kts | 105° |
| 2026-04-19 12:22 | -14.25698 | 35.65533 | 33036 ft | 464 kts | 105° |
| 2026-04-19 12:23 | -14.27239 | 35.72039 | 33032 ft | 464 kts | 105° |
| 2026-04-19 12:23 | -14.28775 | 35.78534 | 33025 ft | 464 kts | 105° |
| 2026-04-19 12:24 | -14.30311 | 35.85038 | 33025 ft | 465 kts | 105° |
| 2026-04-19 12:24 | -14.31624 | 35.90604 | 33022 ft | 464 kts | 105° |
| 2026-04-19 12:25 | -14.33153 | 35.97100 | 33022 ft | 463 kts | 105° |
| 2026-04-19 12:25 | -14.34620 | 36.03341 | 33021 ft | 463 kts | 105° |
| 2026-04-19 12:26 | -14.36130 | 36.09767 | 33025 ft | 462 kts | 105° |
| 2026-04-19 12:26 | -14.37641 | 36.16207 | 33029 ft | 463 kts | 105° |
| 2026-04-19 12:27 | -14.39157 | 36.22675 | 33033 ft | 464 kts | 105° |
| 2026-04-19 12:27 | -14.40673 | 36.29143 | 33036 ft | 464 kts | 105° |
| 2026-04-19 12:28 | -14.42939 | 36.38833 | 33045 ft | 464 kts | 105° |
| 2026-04-19 12:28 | -14.44450 | 36.45301 | 33049 ft | 464 kts | 105° |
| 2026-04-19 12:29 | -14.45952 | 36.51744 | 33053 ft | 463 kts | 105° |
| 2026-04-19 12:29 | -14.47463 | 36.58233 | 33047 ft | 463 kts | 105° |
| 2026-04-19 12:30 | -14.48960 | 36.64672 | 33041 ft | 463 kts | 105° |
| 2026-04-19 12:30 | -14.50466 | 36.71165 | 33029 ft | 463 kts | 105° |
| 2026-04-19 12:31 | -14.51969 | 36.77651 | 33019 ft | 464 kts | 105° |
| 2026-04-19 12:31 | -14.53475 | 36.84155 | 33013 ft | 463 kts | 105° |
| 2026-04-19 12:32 | -14.54851 | 36.90106 | 33007 ft | 463 kts | 105° |
| 2026-04-19 12:32 | -14.56309 | 36.96433 | 33000 ft | 463 kts | 105° |
| 2026-04-19 12:33 | -14.57808 | 37.02944 | 33004 ft | 463 kts | 105° |
| 2026-04-19 12:33 | -14.59298 | 37.09412 | 33004 ft | 463 kts | 105° |
| 2026-04-19 12:34 | -14.60782 | 37.15857 | 33005 ft | 463 kts | 105° |
| 2026-04-19 12:34 | -14.62265 | 37.22317 | 33005 ft | 463 kts | 105° |
| 2026-04-19 12:35 | -14.63746 | 37.28772 | 33007 ft | 464 kts | 105° |
| 2026-04-19 12:35 | -14.65233 | 37.35269 | 33010 ft | 463 kts | 105° |
| 2026-04-19 12:36 | -14.66709 | 37.41722 | 33007 ft | 464 kts | 105° |
| 2026-04-19 12:36 | -14.68186 | 37.48190 | 33007 ft | 463 kts | 105° |
| 2026-04-19 12:37 | -14.69664 | 37.54674 | 33007 ft | 464 kts | 105° |
| 2026-04-19 12:37 | -14.71134 | 37.61129 | 33013 ft | 463 kts | 105° |
| 2026-04-19 12:38 | -14.72609 | 37.67611 | 33021 ft | 464 kts | 104° |
| 2026-04-19 12:38 | -14.74097 | 37.74161 | 32467 ft | 467 kts | 104° |
| 2026-04-19 12:39 | -14.74838 | 37.77426 | 31921 ft | 463 kts | 104° |
| 2026-04-19 12:39 | -14.75572 | 37.80670 | 31529 ft | 456 kts | 104° |
| 2026-04-19 12:39 | -14.76289 | 37.83846 | 31031 ft | 452 kts | 104° |
| 2026-04-19 12:39 | -14.76789 | 37.86057 | 30722 ft | 448 kts | 104° |
| 2026-04-19 12:40 | -14.77517 | 37.89275 | 30249 ft | 442 kts | 104° |
| 2026-04-19 12:40 | -14.78215 | 37.92365 | 29767 ft | 438 kts | 104° |
| 2026-04-19 12:40 | -14.78906 | 37.95417 | 29345 ft | 432 kts | 104° |
| 2026-04-19 12:40 | -14.79541 | 37.98227 | 28904 ft | 428 kts | 104° |
| 2026-04-19 12:41 | -14.80219 | 38.01230 | 28422 ft | 424 kts | 104° |
| 2026-04-19 12:41 | -14.80878 | 38.04150 | 27944 ft | 420 kts | 104° |
| 2026-04-19 12:41 | -14.81536 | 38.07074 | 27449 ft | 416 kts | 104° |
| 2026-04-19 12:41 | -14.82185 | 38.09958 | 26976 ft | 411 kts | 104° |
| 2026-04-19 12:42 | -14.82829 | 38.12822 | 26495 ft | 407 kts | 104° |
| 2026-04-19 12:42 | -14.83468 | 38.15665 | 26016 ft | 403 kts | 104° |
| 2026-04-19 12:42 | -14.84094 | 38.18456 | 25572 ft | 399 kts | 104° |
| 2026-04-19 12:42 | -14.84719 | 38.21241 | 25084 ft | 395 kts | 104° |
| 2026-04-19 12:43 | -14.85329 | 38.23960 | 24638 ft | 390 kts | 104° |
| 2026-04-19 12:43 | -14.85944 | 38.26704 | 24162 ft | 386 kts | 104° |
| 2026-04-19 12:43 | -14.86538 | 38.29359 | 23711 ft | 382 kts | 104° |
| 2026-04-19 12:43 | -14.87137 | 38.32034 | 23219 ft | 379 kts | 104° |
| 2026-04-19 12:44 | -14.87723 | 38.34651 | 22772 ft | 374 kts | 104° |
| 2026-04-19 12:44 | -14.88310 | 38.37272 | 22293 ft | 371 kts | 104° |
| 2026-04-19 12:44 | -14.88880 | 38.39820 | 21830 ft | 368 kts | 104° |
| 2026-04-19 12:44 | -14.89456 | 38.42390 | 21295 ft | 368 kts | 104° |
| 2026-04-19 12:45 | -14.90035 | 38.44980 | 20821 ft | 365 kts | 104° |
| 2026-04-19 12:45 | -14.90602 | 38.47514 | 20300 ft | 365 kts | 103° |
| 2026-04-19 12:45 | -14.91172 | 38.50066 | 19813 ft | 363 kts | 103° |
| 2026-04-19 12:45 | -14.91738 | 38.52604 | 19288 ft | 362 kts | 103° |
| 2026-04-19 12:46 | -14.92304 | 38.55141 | 18782 ft | 361 kts | 103° |
| 2026-04-19 12:46 | -14.92861 | 38.57640 | 18277 ft | 360 kts | 103° |
| 2026-04-19 12:46 | -14.93434 | 38.60133 | 17762 ft | 359 kts | 104° |
| 2026-04-19 12:46 | -14.94146 | 38.62640 | 17211 ft | 360 kts | 109° |
| 2026-04-19 12:47 | -14.95102 | 38.65002 | 16792 ft | 356 kts | 115° |
| 2026-04-19 12:47 | -14.96235 | 38.67277 | 16339 ft | 354 kts | 118° |
| 2026-04-19 12:47 | -14.97446 | 38.69503 | 15900 ft | 351 kts | 119° |
| 2026-04-19 12:47 | -14.98662 | 38.71687 | 15475 ft | 347 kts | 119° |
| 2026-04-19 12:48 | -14.99796 | 38.73735 | 15030 ft | 345 kts | 119° |
| 2026-04-19 12:48 | -15.00892 | 38.75742 | 14626 ft | 343 kts | 118° |
| 2026-04-19 12:48 | -15.02046 | 38.77880 | 14227 ft | 339 kts | 118° |
| 2026-04-19 12:48 | -15.03147 | 38.79937 | 14033 ft | 329 kts | 118° |
| 2026-04-19 12:49 | -15.04165 | 38.81847 | 13934 ft | 317 kts | 118° |
| 2026-04-19 12:49 | -15.05204 | 38.83804 | 13827 ft | 305 kts | 118° |
| 2026-04-19 12:49 | -15.06210 | 38.85698 | 13659 ft | 296 kts | 118° |
| 2026-04-19 12:49 | -15.07200 | 38.87563 | 13342 ft | 293 kts | 118° |
| 2026-04-19 12:50 | -15.08171 | 38.89393 | 12981 ft | 292 kts | 118° |
| 2026-04-19 12:50 | -15.09141 | 38.91220 | 12636 ft | 290 kts | 118° |
| 2026-04-19 12:50 | -15.10113 | 38.93048 | 12292 ft | 289 kts | 118° |
| 2026-04-19 12:50 | -15.11087 | 38.94883 | 11933 ft | 287 kts | 118° |
| 2026-04-19 12:51 | -15.12060 | 38.96715 | 11557 ft | 287 kts | 118° |
| 2026-04-19 12:51 | -15.13021 | 38.98524 | 11218 ft | 285 kts | 117° |
| 2026-04-19 12:51 | -15.13973 | 39.00316 | 10864 ft | 284 kts | 117° |
| 2026-04-19 12:51 | -15.14930 | 39.02117 | 10530 ft | 283 kts | 117° |
| 2026-04-19 12:52 | -15.15880 | 39.03906 | 10190 ft | 281 kts | 117° |
| 2026-04-19 12:52 | -15.16515 | 39.05104 | 9963 ft | 280 kts | 117° |
| 2026-04-19 12:52 | -15.17457 | 39.06882 | 9618 ft | 278 kts | 117° |
| 2026-04-19 12:52 | -15.18405 | 39.08673 | 9297 ft | 276 kts | 117° |
| 2026-04-19 12:53 | -15.19262 | 39.10291 | 9162 ft | 267 kts | 117° |
| 2026-04-19 12:53 | -15.20140 | 39.11953 | 9043 ft | 257 kts | 117° |
| 2026-04-19 12:53 | -15.20982 | 39.13543 | 8936 ft | 247 kts | 117° |
| 2026-04-19 12:53 | -15.21684 | 39.15145 | 8756 ft | 240 kts | 104° |
| 2026-04-19 12:54 | -15.21809 | 39.16845 | 8418 ft | 238 kts | 75° |
| 2026-04-19 12:54 | -15.21034 | 39.18321 | 8180 ft | 227 kts | 45° |
| 2026-04-19 12:54 | -15.19848 | 39.19291 | 8033 ft | 205 kts | 35° |
| 2026-04-19 12:54 | -15.18700 | 39.20078 | 7789 ft | 186 kts | 34° |
| 2026-04-19 12:55 | -15.17655 | 39.20805 | 7427 ft | 175 kts | 35° |
| 2026-04-19 12:55 | -15.16707 | 39.21528 | 7084 ft | 165 kts | 42° |
| 2026-04-19 12:55 | -15.15909 | 39.22366 | 6674 ft | 162 kts | 47° |
| 2026-04-19 12:55 | -15.15149 | 39.23214 | 6267 ft | 159 kts | 47° |
| 2026-04-19 12:56 | -15.14379 | 39.24042 | 5869 ft | 159 kts | 46° |
| 2026-04-19 12:56 | -15.13605 | 39.24873 | 5307 ft | 168 kts | 46° |
| 2026-04-19 12:56 | -15.12696 | 39.25745 | 4405 ft | 183 kts | 41° |
| 2026-04-19 12:56 | -15.11721 | 39.26498 | 4115 ft | 167 kts | 32° |
| 2026-04-19 12:57 | -15.10581 | 39.26963 | 3685 ft | 200 kts | 9° |
| 2026-04-19 12:57 | -15.09205 | 39.26658 | 3478 ft | 212 kts | 328° |
| 2026-04-19 12:57 | -15.08267 | 39.25474 | 3481 ft | 222 kts | 296° |
| 2026-04-19 12:57 | -15.07885 | 39.23908 | 3322 ft | 228 kts | 274° |
| 2026-04-19 12:58 | -15.08093 | 39.22266 | 3012 ft | 231 kts | 253° |
| 2026-04-19 12:58 | -15.08769 | 39.20797 | 3010 ft | 222 kts | 235° |
| 2026-04-19 12:58 | -15.09797 | 39.19570 | 3131 ft | 228 kts | 226° |
| 2026-04-19 12:58 | -15.10918 | 39.18394 | 3378 ft | 230 kts | 223° |
| 2026-04-19 12:59 | -15.12144 | 39.17310 | 3271 ft | 224 kts | 210° |
| 2026-04-19 12:59 | -15.13487 | 39.16713 | 3067 ft | 203 kts | 187° |
| 2026-04-19 12:59 | -15.14810 | 39.16816 | 2898 ft | 174 kts | 153° |
| 2026-04-19 12:59 | -15.15776 | 39.17469 | 2809 ft | 165 kts | 139° |
| 2026-04-19 13:00 | -15.16616 | 39.18265 | 2728 ft | 157 kts | 117° |
| 2026-04-19 13:00 | -15.16835 | 39.19347 | 2491 ft | 160 kts | 80° |
| 2026-04-19 13:00 | -15.16388 | 39.20365 | 2181 ft | 154 kts | 53° |
| 2026-04-19 13:00 | -15.15805 | 39.21299 | 1927 ft | 151 kts | 59° |
| 2026-04-19 13:01 | -15.15292 | 39.22234 | 2023 ft | 146 kts | 60° |
| 2026-04-19 13:01 | -15.14803 | 39.23188 | 2341 ft | 149 kts | 64° |
| 2026-04-19 13:01 | -15.14237 | 39.24130 | 2445 ft | 155 kts | 54° |
| 2026-04-19 13:01 | -15.13547 | 39.24994 | 2276 ft | 155 kts | 47° |
| 2026-04-19 13:02 | -15.12781 | 39.25764 | 2013 ft | 153 kts | 45° |
| 2026-04-19 13:02 | -15.12035 | 39.26568 | 1721 ft | 153 kts | 46° |
| 2026-04-19 13:02 | -15.11292 | 39.27368 | 1487 ft | 154 kts | 47° |
| 2026-04-19 13:02 | -15.10588 | 39.28130 | 1415 ft | 128 kts | 47° |
| 2026-04-19 13:03 | -15.10171 | 39.28577 | 1386 ft | 41 kts | 36° |
| 2026-04-19 13:03 | -15.09976 | 39.28757 | 1368 ft | 19 kts | 45° |
| 2026-04-19 13:03 | -15.09988 | 39.28763 | 1368 ft | 10 kts | 223° |
| 2026-04-19 13:03 | -15.10097 | 39.28654 | 1379 ft | 32 kts | 225° |
| 2026-04-19 13:04 | -15.10253 | 39.28483 | 1393 ft | 28 kts | 218° |
| 2026-04-19 13:04 | -15.10392 | 39.28548 | 1401 ft | 19 kts | 146° |
| 2026-04-19 13:04 | -15.10475 | 39.28526 | 1410 ft | 8 kts | 220° |
| 2026-04-19 13:04 | -15.10549 | 39.28452 | 1421 ft | 25 kts | 226° |
| 2026-04-19 13:05 | -15.10621 | 39.28382 | 1428 ft | 0 kts | 189° |
| 2026-04-19 13:05 | -15.10645 | 39.28378 | 1430 ft | 8 kts | 184° |
| 2026-04-19 13:05 | -15.10661 | 39.28377 | 1432 ft | 0 kts | 183° |